createdAt,value
2023-05-14T00:00:23.374Z,89.27
2023-05-14T00:01:23.199Z,89.37
2023-05-14T00:02:23.259Z,89.27
2023-05-14T00:03:23.212Z,89.06
2023-05-14T00:04:23.179Z,88.76
2023-05-14T00:05:23.151Z,88.86
2023-05-14T00:06:23.817Z,88.86
2023-05-14T00:07:23.128Z,89.21
2023-05-14T00:08:23.121Z,89.42
2023-05-14T00:09:23.121Z,89.62
2023-05-14T00:10:23.272Z,89.83
2023-05-14T00:11:23.417Z,90.03
2023-05-14T00:12:23.080Z,89.92
2023-05-14T00:13:23.081Z,89.87
2023-05-14T00:14:23.059Z,89.66
2023-05-14T00:15:23.083Z,89.83
2023-05-14T00:16:23.357Z,89.76
2023-05-14T00:17:23.109Z,89.76
2023-05-14T00:18:23.020Z,90.48
2023-05-14T00:19:23.016Z,90.89
2023-05-14T00:20:23.529Z,90.99
2023-05-14T00:21:23.003Z,90.89
2023-05-14T00:22:22.984Z,90.69
2023-05-14T00:23:23.026Z,90.69
2023-05-14T00:24:22.964Z,90.79
2023-05-14T00:25:22.975Z,90.37
2023-05-14T00:26:22.949Z,90.07
2023-05-14T00:27:22.933Z,90.17
2023-05-14T00:28:22.911Z,90.28
2023-05-14T00:29:23.270Z,90.28
2023-05-14T00:30:23.438Z,90.42
2023-05-14T00:31:22.917Z,90.62
2023-05-14T00:32:22.911Z,90.83
2023-05-14T00:33:22.877Z,90.83
2023-05-14T00:34:23.346Z,91.14
2023-05-14T00:35:22.856Z,91.35
2023-05-14T00:36:22.851Z,91.44
2023-05-14T00:37:22.836Z,91.44
2023-05-14T00:38:22.814Z,91.38
2023-05-14T00:39:23.661Z,91.59
2023-05-14T00:40:23.138Z,91.65
2023-05-14T00:41:22.784Z,91.90
2023-05-14T00:42:22.792Z,91.80
2023-05-14T00:43:23.113Z,91.69
2023-05-14T00:44:23.185Z,91.18
2023-05-14T00:45:22.771Z,91.28
2023-05-14T00:46:22.793Z,91.59
2023-05-14T00:47:22.745Z,91.90
2023-05-14T00:48:23.424Z,91.90
2023-05-14T00:49:22.742Z,92.41
2023-05-14T00:50:22.934Z,92.51
2023-05-14T00:51:22.712Z,92.51
2023-05-14T00:52:22.680Z,91.90
2023-05-14T00:53:23.496Z,92.00
2023-05-14T00:54:22.649Z,91.90
2023-05-14T00:55:22.659Z,92.21
2023-05-14T00:56:22.670Z,91.80
2023-05-14T00:57:22.658Z,91.55
2023-05-14T00:58:23.215Z,91.55
2023-05-14T00:59:22.618Z,91.35
2023-05-14T01:00:22.785Z,90.62
2023-05-14T01:01:22.661Z,90.73
2023-05-14T01:02:22.722Z,90.42
2023-05-14T01:03:22.649Z,90.36
2023-05-14T01:04:22.789Z,90.93
2023-05-14T01:05:22.568Z,90.62
2023-05-14T01:06:22.537Z,90.22
2023-05-14T01:07:22.547Z,90.52
2023-05-14T01:08:22.507Z,90.42
2023-05-14T01:09:22.507Z,90.93
2023-05-14T01:10:22.683Z,90.93
2023-05-14T01:11:23.261Z,91.44
2023-05-14T01:12:22.481Z,91.55
2023-05-14T01:13:22.460Z,91.90
2023-05-14T01:14:22.449Z,92.41
2023-05-14T01:15:22.441Z,92.41
2023-05-14T01:16:22.790Z,92.55
2023-05-14T01:17:22.421Z,92.66
2023-05-14T01:18:22.401Z,92.86
2023-05-14T01:19:22.400Z,93.38
2023-05-14T01:20:22.596Z,93.59
2023-05-14T01:21:22.749Z,93.99
2023-05-14T01:22:22.372Z,94.10
2023-05-14T01:23:22.355Z,94.30
2023-05-14T01:24:22.341Z,94.20
2023-05-14T01:25:22.382Z,94.24
2023-05-14T01:26:22.667Z,94.14
2023-05-14T01:27:22.313Z,93.93
2023-05-14T01:28:22.309Z,93.83
2023-05-14T01:29:22.294Z,93.83
2023-05-14T01:30:22.648Z,93.93
2023-05-14T01:31:22.281Z,94.14
2023-05-14T01:32:22.281Z,94.24
2023-05-14T01:33:22.263Z,94.34
2023-05-14T01:34:22.235Z,94.34
2023-05-14T01:35:22.278Z,94.65
2023-05-14T01:36:22.221Z,94.76
2023-05-14T01:37:22.219Z,94.65
2023-05-14T01:38:22.199Z,93.93
2023-05-14T01:39:22.493Z,93.83
2023-05-14T01:40:22.800Z,93.52
2023-05-14T01:41:22.174Z,93.32
2023-05-14T01:42:22.153Z,93.17
2023-05-14T01:43:22.167Z,92.97
2023-05-14T01:44:22.456Z,92.86
2023-05-14T01:45:22.130Z,92.66
2023-05-14T01:46:22.150Z,92.86
2023-05-14T01:47:22.248Z,93.17
2023-05-14T01:48:22.095Z,93.52
2023-05-14T01:49:22.129Z,94.04
2023-05-14T01:50:22.234Z,94.14
2023-05-14T01:51:22.057Z,94.24
2023-05-14T01:52:22.044Z,94.45
2023-05-14T01:53:22.067Z,94.65
2023-05-14T01:54:22.360Z,94.76
2023-05-14T01:55:22.034Z,95.17
2023-05-14T01:56:22.001Z,95.27
2023-05-14T01:57:22.007Z,95.17
2023-05-14T01:58:22.392Z,95.17
2023-05-14T01:59:21.980Z,95.17
2023-05-14T02:00:22.169Z,95.06
2023-05-14T02:01:21.970Z,95.01
2023-05-14T02:02:21.942Z,94.65
2023-05-14T02:03:22.455Z,94.55
2023-05-14T02:04:21.982Z,94.65
2023-05-14T02:05:21.915Z,94.45
2023-05-14T02:06:21.890Z,94.04
2023-05-14T02:07:22.262Z,93.73
2023-05-14T02:08:22.641Z,94.14
2023-05-14T02:09:21.882Z,94.55
2023-05-14T02:10:22.041Z,94.76
2023-05-14T02:11:21.857Z,94.65
2023-05-14T02:12:22.174Z,94.76
2023-05-14T02:13:21.836Z,94.76
2023-05-14T02:14:21.816Z,94.55
2023-05-14T02:15:21.818Z,94.40
2023-05-14T02:16:21.843Z,94.45
2023-05-14T02:17:22.034Z,94.55
2023-05-14T02:18:21.795Z,94.55
2023-05-14T02:19:22.530Z,94.65
2023-05-14T02:20:21.900Z,94.65
2023-05-14T02:21:21.769Z,94.45
2023-05-14T02:22:22.233Z,94.34
2023-05-14T02:23:28.262Z,94.45
2023-05-14T02:24:21.727Z,94.65
2023-05-14T02:25:21.726Z,95.06
2023-05-14T02:26:22.042Z,95.17
2023-05-14T02:27:21.684Z,95.27
2023-05-14T02:28:21.673Z,95.27
2023-05-14T02:29:21.667Z,95.37
2023-05-14T02:30:21.828Z,95.37
2023-05-14T02:31:22.122Z,95.37
2023-05-14T02:32:21.687Z,95.37
2023-05-14T02:33:21.690Z,95.06
2023-05-14T02:34:21.623Z,94.85
2023-05-14T02:35:21.922Z,94.65
2023-05-14T02:36:21.901Z,94.55
2023-05-14T02:37:21.600Z,94.55
2023-05-14T02:38:21.574Z,94.65
2023-05-14T02:39:21.577Z,94.85
2023-05-14T02:40:22.488Z,95.06
2023-05-14T02:41:21.559Z,95.17
2023-05-14T02:42:21.520Z,95.27
2023-05-14T02:43:21.527Z,95.57
2023-05-14T02:44:21.510Z,95.68
2023-05-14T02:45:21.858Z,95.47
2023-05-14T02:46:21.532Z,95.57
2023-05-14T02:47:21.510Z,95.57
2023-05-14T02:48:21.463Z,95.78
2023-05-14T02:49:22.337Z,95.78
2023-05-14T02:50:21.887Z,95.57
2023-05-14T02:51:21.384Z,95.57
2023-05-14T02:52:21.440Z,95.17
2023-05-14T02:53:21.418Z,95.37
2023-05-14T02:54:21.705Z,95.89
2023-05-14T02:55:21.345Z,95.89
2023-05-14T02:56:21.352Z,96.30
2023-05-14T02:57:21.333Z,96.50
2023-05-14T02:58:27.291Z,96.40
2023-05-14T02:59:21.819Z,96.40
2023-05-14T03:00:21.641Z,96.19
2023-05-14T03:01:21.373Z,96.25
2023-05-14T03:02:21.339Z,95.94
2023-05-14T03:03:21.671Z,95.32
2023-05-14T03:04:21.329Z,94.92
2023-05-14T03:05:21.286Z,94.61
2023-05-14T03:06:21.299Z,94.36
2023-05-14T03:07:21.263Z,94.15
2023-05-14T03:08:21.973Z,94.05
2023-05-14T03:09:21.260Z,94.15
2023-05-14T03:10:21.390Z,93.70
2023-05-14T03:11:21.172Z,93.29
2023-05-14T03:12:21.159Z,92.88
2023-05-14T03:13:21.482Z,92.47
2023-05-14T03:14:21.134Z,92.27
2023-05-14T03:15:21.139Z,92.06
2023-05-14T03:16:21.202Z,91.75
2023-05-14T03:17:21.633Z,91.65
2023-05-14T03:18:21.417Z,92.36
2023-05-14T03:19:21.092Z,92.47
2023-05-14T03:20:21.276Z,92.16
2023-05-14T03:21:21.073Z,92.57
2023-05-14T03:22:21.382Z,92.47
2023-05-14T03:23:21.049Z,92.36
2023-05-14T03:24:21.030Z,92.47
2023-05-14T03:25:21.027Z,92.36
2023-05-14T03:26:21.012Z,92.47
2023-05-14T03:27:21.356Z,92.78
2023-05-14T03:28:20.989Z,93.08
2023-05-14T03:29:20.991Z,93.29
2023-05-14T03:30:21.098Z,93.29
2023-05-14T03:31:21.338Z,93.39
2023-05-14T03:32:21.346Z,93.70
2023-05-14T03:33:20.944Z,93.60
2023-05-14T03:34:20.923Z,94.11
2023-05-14T03:35:20.923Z,94.21
2023-05-14T03:36:20.930Z,94.32
2023-05-14T03:37:20.904Z,94.27
2023-05-14T03:38:20.884Z,93.45
2023-05-14T03:39:20.878Z,93.15
2023-05-14T03:40:20.860Z,93.45
2023-05-14T03:41:21.230Z,93.45
2023-05-14T03:42:20.839Z,93.45
2023-05-14T03:43:20.841Z,93.86
2023-05-14T03:44:20.817Z,93.86
2023-05-14T03:45:21.145Z,93.86
2023-05-14T03:46:21.348Z,93.86
2023-05-14T03:47:20.798Z,93.71
2023-05-14T03:48:20.929Z,93.30
2023-05-14T03:49:20.769Z,93.41
2023-05-14T03:50:21.177Z,93.10
2023-05-14T03:51:20.752Z,93.20
2023-05-14T03:52:20.765Z,93.00
2023-05-14T03:53:20.733Z,92.90
2023-05-14T03:54:20.724Z,92.59
2023-05-14T03:55:21.049Z,92.90
2023-05-14T03:56:20.704Z,92.34
2023-05-14T03:57:20.680Z,91.52
2023-05-14T03:58:20.695Z,91.31
2023-05-14T03:59:21.391Z,91.42
2023-05-14T04:00:20.764Z,91.22
2023-05-14T04:01:20.644Z,90.39
2023-05-14T04:02:20.651Z,90.81
2023-05-14T04:03:21.070Z,90.86
2023-05-14T04:04:20.685Z,90.56
2023-05-14T04:05:20.614Z,90.45
2023-05-14T04:06:20.602Z,90.77
2023-05-14T04:07:20.585Z,90.86
2023-05-14T04:08:20.595Z,91.03
2023-05-14T04:09:21.433Z,90.72
2023-05-14T04:10:20.579Z,90.25
2023-05-14T04:11:20.559Z,90.97
2023-05-14T04:12:20.533Z,91.44
2023-05-14T04:13:20.883Z,90.00
2023-05-14T04:14:20.878Z,90.62
2023-05-14T04:15:20.511Z,90.82
2023-05-14T04:16:20.562Z,90.72
2023-05-14T04:17:20.479Z,90.11
2023-05-14T04:18:20.785Z,91.03
2023-05-14T04:19:20.569Z,89.59
2023-05-14T04:20:20.450Z,89.64
2023-05-14T04:21:20.461Z,89.94
2023-05-14T04:22:20.457Z,88.71
2023-05-14T04:23:21.262Z,89.53
2023-05-14T04:24:20.417Z,89.74
2023-05-14T04:25:20.402Z,89.39
2023-05-14T04:26:20.405Z,88.98
2023-05-14T04:27:20.685Z,88.88
2023-05-14T04:28:20.708Z,88.06
2023-05-14T04:29:20.362Z,88.06
2023-05-14T04:30:20.360Z,87.96
2023-05-14T04:31:20.363Z,87.92
2023-05-14T04:32:21.143Z,87.51
2023-05-14T04:33:20.314Z,87.71
2023-05-14T04:34:20.331Z,87.51
2023-05-14T04:35:22.091Z,86.79
2023-05-14T04:36:20.484Z,86.85
2023-05-14T04:37:20.637Z,86.65
2023-05-14T04:38:20.271Z,86.29
2023-05-14T04:39:20.250Z,87.20
2023-05-14T04:40:20.250Z,87.41
2023-05-14T04:41:20.586Z,87.67
2023-05-14T04:42:20.234Z,87.67
2023-05-14T04:43:20.213Z,87.16
2023-05-14T04:44:20.206Z,87.16
2023-05-14T04:45:20.193Z,88.08
2023-05-14T04:46:20.616Z,87.84
2023-05-14T04:47:20.271Z,87.84
2023-05-14T04:48:20.169Z,87.12
2023-05-14T04:49:20.162Z,86.82
2023-05-14T04:50:20.146Z,86.41
2023-05-14T04:51:20.883Z,86.51
2023-05-14T04:52:20.123Z,85.89
2023-05-14T04:53:20.114Z,86.00
2023-05-14T04:54:20.139Z,85.96
2023-05-14T04:55:20.464Z,85.86
2023-05-14T04:56:20.098Z,86.06
2023-05-14T04:57:20.100Z,87.18
2023-05-14T04:58:20.069Z,87.65
2023-05-14T04:59:20.050Z,86.94
2023-05-14T05:00:20.370Z,86.63
2023-05-14T05:01:20.063Z,86.94
2023-05-14T05:02:20.028Z,87.35
2023-05-14T05:03:20.171Z,87.65
2023-05-14T05:04:20.125Z,87.76
2023-05-14T05:05:20.313Z,87.85
2023-05-14T05:06:19.987Z,87.85
2023-05-14T05:07:19.978Z,87.96
2023-05-14T05:08:19.970Z,87.55
2023-05-14T05:09:20.308Z,87.96
2023-05-14T05:10:20.250Z,88.53
2023-05-14T05:11:19.946Z,88.67
2023-05-14T05:12:19.937Z,88.53
2023-05-14T05:13:19.922Z,88.37
2023-05-14T05:14:19.962Z,88.32
2023-05-14T05:15:19.894Z,88.12
2023-05-14T05:16:19.946Z,88.63
2023-05-14T05:17:19.904Z,87.92
2023-05-14T05:18:19.884Z,86.49
2023-05-14T05:19:26.550Z,84.45
2023-05-14T05:20:19.856Z,84.49
2023-05-14T05:21:19.845Z,85.77
2023-05-14T05:22:19.841Z,86.39
2023-05-14T05:23:20.175Z,85.71
2023-05-14T05:24:20.247Z,86.63
2023-05-14T05:25:19.803Z,86.73
2023-05-14T05:26:19.804Z,86.94
2023-05-14T05:27:19.780Z,87.14
2023-05-14T05:28:20.104Z,87.04
2023-05-14T05:29:19.761Z,87.55
2023-05-14T05:30:19.757Z,86.69
2023-05-14T05:31:20.047Z,86.49
2023-05-14T05:32:19.742Z,84.86
2023-05-14T05:33:20.043Z,84.86
2023-05-14T05:34:19.719Z,85.37
2023-05-14T05:35:19.712Z,85.68
2023-05-14T05:36:19.703Z,84.96
2023-05-14T05:37:20.079Z,84.96
2023-05-14T05:38:19.703Z,85.94
2023-05-14T05:39:19.666Z,85.94
2023-05-14T05:40:19.670Z,85.33
2023-05-14T05:41:19.648Z,85.33
2023-05-14T05:42:19.968Z,84.41
2023-05-14T05:43:19.630Z,84.72
2023-05-14T05:44:19.628Z,85.74
2023-05-14T05:45:19.611Z,84.31
2023-05-14T05:46:19.654Z,85.33
2023-05-14T05:47:19.992Z,85.22
2023-05-14T05:48:19.589Z,83.80
2023-05-14T05:49:19.569Z,84.41
2023-05-14T05:50:20.078Z,83.80
2023-05-14T05:51:19.857Z,83.39
2023-05-14T05:52:19.911Z,83.59
2023-05-14T05:53:19.531Z,83.76
2023-05-14T05:54:19.525Z,83.29
2023-05-14T05:55:19.519Z,82.68
2023-05-14T05:56:19.866Z,82.98
2023-05-14T05:57:19.492Z,82.88
2023-05-14T05:58:19.486Z,83.90
2023-05-14T05:59:19.472Z,83.70
2023-05-14T06:00:19.505Z,82.33
2023-05-14T06:01:19.490Z,82.78
2023-05-14T06:02:19.482Z,84.41
2023-05-14T06:03:19.471Z,82.88
2023-05-14T06:04:19.435Z,82.78
2023-05-14T06:05:19.523Z,82.57
2023-05-14T06:06:19.447Z,83.29
2023-05-14T06:07:19.400Z,82.78
2023-05-14T06:08:19.404Z,83.15
2023-05-14T06:09:19.380Z,82.78
2023-05-14T06:10:19.765Z,83.56
2023-05-14T06:11:19.362Z,83.56
2023-05-14T06:12:19.382Z,83.25
2023-05-14T06:13:19.348Z,81.79
2023-05-14T06:14:19.349Z,81.48
2023-05-14T06:15:19.391Z,82.09
2023-05-14T06:16:19.340Z,82.19
2023-05-14T06:17:19.369Z,82.87
2023-05-14T06:18:19.310Z,83.58
2023-05-14T06:19:19.781Z,82.76
2023-05-14T06:20:19.820Z,80.83
2023-05-14T06:21:19.274Z,81.13
2023-05-14T06:22:19.269Z,81.40
2023-05-14T06:23:19.256Z,80.29
2023-05-14T06:24:19.590Z,80.90
2023-05-14T06:25:19.239Z,80.69
2023-05-14T06:26:19.246Z,79.77
2023-05-14T06:27:19.226Z,81.16
2023-05-14T06:28:19.233Z,79.23
2023-05-14T06:29:19.218Z,78.72
2023-05-14T06:30:19.199Z,78.72
2023-05-14T06:31:19.239Z,80.00
2023-05-14T06:32:19.284Z,80.31
2023-05-14T06:33:20.625Z,80.11
2023-05-14T06:34:19.470Z,78.78
2023-05-14T06:35:19.154Z,80.11
2023-05-14T06:36:19.158Z,79.46
2023-05-14T06:37:19.127Z,79.05
2023-05-14T06:38:19.845Z,77.73
2023-05-14T06:39:19.117Z,78.89
2023-05-14T06:40:19.106Z,78.58
2023-05-14T06:41:19.096Z,77.56
2023-05-14T06:42:19.098Z,78.68
2023-05-14T06:43:19.090Z,77.67
2023-05-14T06:44:19.073Z,78.78
2023-05-14T06:45:19.058Z,77.77
2023-05-14T06:46:19.059Z,79.36
2023-05-14T06:47:19.363Z,76.92
2023-05-14T06:48:19.400Z,77.12
2023-05-14T06:49:19.016Z,76.72
2023-05-14T06:50:19.021Z,77.94
2023-05-14T06:51:19.007Z,76.72
2023-05-14T06:52:19.022Z,76.92
2023-05-14T06:53:18.989Z,76.92
2023-05-14T06:54:18.976Z,76.41
2023-05-14T06:55:18.973Z,76.72
2023-05-14T06:56:18.965Z,76.28
2023-05-14T06:57:19.142Z,77.36
2023-05-14T06:58:18.942Z,76.03
2023-05-14T06:59:18.918Z,75.22
2023-05-14T07:00:18.921Z,75.02
2023-05-14T07:01:18.936Z,75.63
2023-05-14T07:02:18.910Z,74.82
2023-05-14T07:03:18.875Z,75.39
2023-05-14T07:04:18.949Z,74.98
2023-05-14T07:05:18.858Z,74.85
2023-05-14T07:06:18.860Z,75.46
2023-05-14T07:07:18.837Z,75.01
2023-05-14T07:08:18.838Z,73.60
2023-05-14T07:09:18.813Z,74.07
2023-05-14T07:10:18.809Z,72.65
2023-05-14T07:11:18.837Z,73.56
2023-05-14T07:12:18.791Z,73.56
2023-05-14T07:13:18.768Z,71.84
2023-05-14T07:14:18.777Z,71.73
2023-05-14T07:15:19.005Z,71.91
2023-05-14T07:16:19.092Z,72.61
2023-05-14T07:17:18.786Z,72.61
2023-05-14T07:18:18.728Z,71.06
2023-05-14T07:19:18.725Z,70.76
2023-05-14T07:20:19.419Z,70.25
2023-05-14T07:21:18.682Z,70.05
2023-05-14T07:22:18.689Z,69.85
2023-05-14T07:23:19.986Z,69.04
2023-05-14T07:24:18.655Z,69.85
2023-05-14T07:25:18.995Z,71.40
2023-05-14T07:26:18.635Z,68.74
2023-05-14T07:27:18.621Z,70.29
2023-05-14T07:28:18.615Z,67.76
2023-05-14T07:29:18.921Z,70.39
2023-05-14T07:30:19.012Z,68.47
2023-05-14T07:31:18.596Z,71.33
2023-05-14T07:32:18.570Z,70.18
2023-05-14T07:33:18.566Z,68.26
2023-05-14T07:34:18.852Z,68.57
2023-05-14T07:35:18.534Z,69.78
2023-05-14T07:36:18.531Z,69.48
2023-05-14T07:37:18.522Z,69.31
2023-05-14T07:38:18.509Z,70.29
2023-05-14T07:39:18.770Z,69.78
2023-05-14T07:40:18.490Z,70.59
2023-05-14T07:41:18.472Z,67.76
2023-05-14T07:42:31.789Z,67.35
2023-05-14T07:43:18.487Z,69.38
2023-05-14T07:44:18.755Z,67.93
2023-05-14T07:45:18.416Z,68.51
2023-05-14T07:46:18.424Z,67.29
2023-05-14T07:47:18.447Z,66.25
2023-05-14T07:48:18.444Z,65.95
2023-05-14T07:49:18.378Z,67.43
2023-05-14T07:50:18.369Z,68.64
2023-05-14T07:51:18.352Z,65.71
2023-05-14T07:52:18.352Z,66.55
2023-05-14T07:53:18.349Z,67.97
2023-05-14T07:54:18.325Z,67.86
2023-05-14T07:55:18.310Z,66.15
2023-05-14T07:56:18.295Z,67.63
2023-05-14T07:57:18.676Z,67.63
2023-05-14T07:58:18.284Z,68.04
2023-05-14T07:59:18.254Z,66.93
2023-05-14T08:00:18.252Z,68.04
2023-05-14T08:01:18.229Z,68.91
2023-05-14T08:02:18.628Z,65.18
2023-05-14T08:03:18.308Z,65.71
2023-05-14T08:04:18.324Z,67.83
2023-05-14T08:05:18.183Z,67.33
2023-05-14T08:06:18.165Z,66.82
2023-05-14T08:07:18.184Z,66.52
2023-05-14T08:08:18.143Z,67.23
2023-05-14T08:09:18.148Z,66.22
2023-05-14T08:10:18.122Z,69.52
2023-05-14T08:11:18.714Z,68.71
2023-05-14T08:12:18.475Z,64.67
2023-05-14T08:13:18.096Z,64.47
2023-05-14T08:14:18.069Z,66.96
2023-05-14T08:15:18.067Z,65.52
2023-05-14T08:16:18.094Z,63.90
2023-05-14T08:17:18.143Z,63.70
2023-05-14T08:18:18.032Z,63.37
2023-05-14T08:19:18.091Z,63.17
2023-05-14T08:20:18.005Z,63.45
2023-05-14T08:21:18.014Z,62.41
2023-05-14T08:22:17.990Z,62.58
2023-05-14T08:23:17.979Z,62.51
2023-05-14T08:24:17.955Z,59.75
2023-05-14T08:25:18.273Z,60.71
2023-05-14T08:26:18.498Z,60.00
2023-05-14T08:27:17.931Z,59.23
2023-05-14T08:28:17.920Z,60.13
2023-05-14T08:29:17.925Z,59.76
2023-05-14T08:30:18.794Z,59.69
2023-05-14T08:31:17.913Z,60.22
2023-05-14T08:32:23.511Z,62.13
2023-05-14T08:33:17.871Z,63.18
2023-05-14T08:34:17.854Z,58.62
2023-05-14T08:35:17.870Z,57.50
2023-05-14T08:36:17.830Z,58.40
2023-05-14T08:37:17.859Z,62.75
2023-05-14T08:38:17.820Z,52.47
2023-05-14T08:39:17.822Z,55.10
2023-05-14T08:40:18.002Z,56.63
2023-05-14T08:41:17.785Z,54.55
2023-05-14T08:42:17.772Z,52.19
2023-05-14T08:43:17.768Z,54.37
2023-05-14T08:44:17.766Z,53.32
2023-05-14T08:45:17.742Z,56.88
2023-05-14T08:46:17.729Z,55.80
2023-05-14T08:47:17.729Z,57.37
2023-05-14T08:48:17.772Z,58.97
2023-05-14T08:49:17.723Z,59.99
2023-05-14T08:50:17.678Z,57.26
2023-05-14T08:51:17.677Z,54.85
2023-05-14T08:52:17.659Z,55.71
2023-05-14T08:53:17.668Z,55.75
2023-05-14T08:54:17.890Z,53.72
2023-05-14T08:55:17.635Z,54.17
2023-05-14T08:56:17.613Z,53.37
2023-05-14T08:57:17.605Z,53.27
2023-05-14T08:58:17.969Z,53.94
2023-05-14T08:59:17.596Z,52.69
2023-05-14T09:00:17.568Z,55.40
2023-05-14T09:01:17.580Z,51.72
2023-05-14T09:02:17.578Z,55.36
2023-05-14T09:03:17.565Z,51.72
2023-05-14T09:04:17.596Z,47.36
2023-05-14T09:05:17.525Z,47.45
2023-05-14T09:06:17.515Z,47.48
2023-05-14T09:07:17.520Z,47.00
2023-05-14T09:08:17.499Z,50.74
2023-05-14T09:09:17.494Z,46.68
2023-05-14T09:10:17.459Z,49.00
2023-05-14T09:11:17.465Z,49.55
2023-05-14T09:12:17.470Z,48.40
2023-05-14T09:13:17.437Z,47.95
2023-05-14T09:14:17.430Z,49.35
2023-05-14T09:15:17.424Z,48.65
2023-05-14T09:16:17.411Z,49.67
2023-05-14T09:17:17.437Z,48.99
2023-05-14T09:18:17.389Z,49.79
2023-05-14T09:19:17.557Z,50.09
2023-05-14T09:20:17.497Z,48.75
2023-05-14T09:21:17.375Z,48.10
2023-05-14T09:22:17.364Z,49.48
2023-05-14T09:23:17.352Z,48.60
2023-05-14T09:24:17.338Z,45.81
2023-05-14T09:25:17.424Z,49.20
2023-05-14T09:26:17.320Z,47.40
2023-05-14T09:27:17.294Z,49.82
2023-05-14T09:28:17.286Z,50.22
2023-05-14T09:29:17.266Z,47.55
2023-05-14T09:30:17.247Z,50.60
2023-05-14T09:31:17.591Z,49.87
2023-05-14T09:32:17.235Z,49.75
2023-05-14T09:33:17.224Z,47.24
2023-05-14T09:34:17.208Z,46.31
2023-05-14T09:35:17.979Z,46.42
2023-05-14T09:36:17.518Z,44.01
2023-05-14T09:37:17.185Z,46.67
2023-05-14T09:38:17.167Z,46.59
2023-05-14T09:39:17.189Z,48.58
2023-05-14T09:40:17.442Z,44.10
2023-05-14T09:41:17.156Z,44.46
2023-05-14T09:42:17.126Z,45.36
2023-05-14T09:43:17.124Z,44.14
2023-05-14T09:44:17.109Z,41.85
2023-05-14T09:45:17.157Z,42.55
2023-05-14T09:46:17.087Z,43.05
2023-05-14T09:47:17.131Z,43.88
2023-05-14T09:48:17.111Z,45.78
2023-05-14T09:49:17.080Z,46.25
2023-05-14T09:50:17.085Z,41.77
2023-05-14T09:51:17.058Z,46.03
2023-05-14T09:52:17.035Z,44.14
2023-05-14T09:53:17.025Z,46.23
2023-05-14T09:54:17.459Z,46.99
2023-05-14T09:55:17.006Z,43.51
2023-05-14T09:56:17.007Z,53.74
2023-05-14T09:57:16.977Z,46.09
2023-05-14T09:58:16.966Z,45.92
2023-05-14T09:59:17.304Z,46.94
2023-05-14T10:00:16.940Z,48.93
2023-05-14T10:01:16.983Z,49.23
2023-05-14T10:02:16.914Z,45.85
2023-05-14T10:03:19.727Z,50.07
2023-05-14T10:04:17.077Z,53.14
2023-05-14T10:05:16.896Z,48.97
2023-05-14T10:06:16.877Z,48.27
2023-05-14T10:07:16.868Z,48.60
2023-05-14T10:08:16.863Z,50.79
2023-05-14T10:09:17.194Z,47.55
2023-05-14T10:10:16.863Z,47.22
2023-05-14T10:11:16.823Z,48.08
2023-05-14T10:12:16.804Z,46.26
2023-05-14T10:13:17.168Z,46.46
2023-05-14T10:14:16.792Z,46.04
2023-05-14T10:15:16.770Z,50.18
2023-05-14T10:16:16.761Z,50.65
2023-05-14T10:17:16.854Z,47.77
2023-05-14T10:18:16.824Z,45.37
2023-05-14T10:19:16.794Z,46.75
2023-05-14T10:20:16.765Z,43.59
2023-05-14T10:21:16.714Z,45.32
2023-05-14T10:22:16.709Z,44.29
2023-05-14T10:23:16.726Z,46.77
2023-05-14T10:24:16.682Z,52.72
2023-05-14T10:25:16.693Z,55.32
2023-05-14T10:26:16.659Z,54.92
2023-05-14T10:27:17.177Z,52.04
2023-05-14T10:28:16.624Z,54.27
2023-05-14T10:29:16.626Z,49.49
2023-05-14T10:30:16.608Z,53.67
2023-05-14T10:31:16.753Z,52.94
2023-05-14T10:32:16.612Z,49.64
2023-05-14T10:33:16.700Z,46.24
2023-05-14T10:34:16.567Z,48.42
2023-05-14T10:35:16.565Z,46.77
2023-05-14T10:36:16.941Z,51.52
2023-05-14T10:37:16.537Z,47.22
2023-05-14T10:38:16.521Z,48.14
2023-05-14T10:39:16.524Z,44.63
2023-05-14T10:40:16.504Z,45.59
2023-05-14T10:41:16.514Z,44.43
2023-05-14T10:42:16.479Z,45.59
2023-05-14T10:43:16.476Z,47.67
2023-05-14T10:44:16.460Z,47.10
2023-05-14T10:45:16.475Z,48.78
2023-05-14T10:46:16.856Z,48.70
2023-05-14T10:47:16.448Z,47.60
2023-05-14T10:48:16.485Z,46.23
2023-05-14T10:49:20.987Z,47.55
2023-05-14T10:50:16.704Z,45.65
2023-05-14T10:51:16.448Z,45.37
2023-05-14T10:52:16.370Z,47.97
2023-05-14T10:53:16.361Z,50.27
2023-05-14T10:54:16.348Z,49.19
2023-05-14T10:55:16.755Z,47.02
2023-05-14T10:56:16.334Z,49.74
2023-05-14T10:57:16.320Z,47.94
2023-05-14T10:58:16.310Z,47.84
2023-05-14T10:59:16.313Z,47.92
2023-05-14T11:00:16.307Z,48.19
2023-05-14T11:01:16.281Z,48.57
2023-05-14T11:02:16.428Z,45.55
2023-05-14T11:03:16.286Z,47.03
2023-05-14T11:04:16.290Z,51.62
2023-05-14T11:05:16.339Z,46.17
2023-05-14T11:06:16.331Z,49.57
2023-05-14T11:07:16.214Z,49.95
2023-05-14T11:08:16.202Z,46.95
2023-05-14T11:09:16.214Z,47.42
2023-05-14T11:10:16.177Z,48.80
2023-05-14T11:11:16.169Z,44.71
2023-05-14T11:12:16.154Z,45.78
2023-05-14T11:13:16.895Z,46.01
2023-05-14T11:14:16.151Z,44.65
2023-05-14T11:15:16.130Z,44.45
2023-05-14T11:16:23.397Z,44.55
2023-05-14T11:17:16.126Z,48.70
2023-05-14T11:18:16.433Z,41.93
2023-05-14T11:19:16.140Z,42.93
2023-05-14T11:20:16.078Z,46.45
2023-05-14T11:21:16.071Z,43.40
2023-05-14T11:22:16.067Z,42.69
2023-05-14T11:23:16.796Z,47.39
2023-05-14T11:24:16.019Z,47.27
2023-05-14T11:25:16.008Z,47.35
2023-05-14T11:26:16.064Z,49.72
2023-05-14T11:27:16.297Z,50.30
2023-05-14T11:28:16.492Z,45.53
2023-05-14T11:29:15.970Z,45.95
2023-05-14T11:30:15.960Z,47.25
2023-05-14T11:31:15.986Z,42.57
2023-05-14T11:32:16.856Z,41.49
2023-05-14T11:33:15.938Z,44.37
2023-05-14T11:34:15.912Z,44.25
2023-05-14T11:35:15.901Z,44.45
2023-05-14T11:36:15.905Z,42.43
2023-05-14T11:37:16.295Z,49.10
2023-05-14T11:38:15.868Z,44.49
2023-05-14T11:39:15.869Z,41.82
2023-05-14T11:40:15.846Z,42.02
2023-05-14T11:41:16.747Z,42.57
2023-05-14T11:42:16.178Z,41.46
2023-05-14T11:43:15.830Z,46.16
2023-05-14T11:44:15.803Z,46.04
2023-05-14T11:45:15.819Z,47.11
2023-05-14T11:46:16.098Z,44.32
2023-05-14T11:47:15.786Z,50.68
2023-05-14T11:48:15.853Z,40.58
2023-05-14T11:49:15.758Z,38.78
2023-05-14T11:50:15.819Z,42.79
2023-05-14T11:51:16.565Z,42.10
2023-05-14T11:52:15.739Z,41.00
2023-05-14T11:53:15.709Z,49.42
2023-05-14T11:54:15.690Z,44.73
2023-05-14T11:55:16.188Z,42.49
2023-05-14T11:56:16.010Z,46.30
2023-05-14T11:57:15.673Z,44.79
2023-05-14T11:58:15.662Z,42.68
2023-05-14T11:59:15.646Z,43.23
2023-05-14T12:00:15.690Z,51.87
2023-05-14T12:01:15.628Z,42.07
2023-05-14T12:02:15.648Z,48.13
2023-05-14T12:03:15.709Z,41.33
2023-05-14T12:04:15.598Z,42.85
2023-05-14T12:05:15.970Z,42.29
2023-05-14T12:06:15.561Z,41.50
2023-05-14T12:07:15.602Z,43.11
2023-05-14T12:08:15.553Z,43.41
2023-05-14T12:09:16.323Z,40.95
2023-05-14T12:10:16.019Z,44.15
2023-05-14T12:11:15.517Z,44.45
2023-05-14T12:12:15.494Z,42.85
2023-05-14T12:13:15.495Z,42.95
2023-05-14T12:14:15.840Z,43.77
2023-05-14T12:15:15.478Z,45.07
2023-05-14T12:16:15.503Z,45.87
2023-05-14T12:17:15.439Z,43.99
2023-05-14T12:18:23.893Z,45.62
2023-05-14T12:19:15.899Z,46.30
2023-05-14T12:20:15.453Z,45.72
2023-05-14T12:21:15.400Z,45.86
2023-05-14T12:22:15.430Z,47.26
2023-05-14T12:23:16.082Z,49.14
2023-05-14T12:24:15.785Z,46.94
2023-05-14T12:25:15.355Z,48.64
2023-05-14T12:26:15.347Z,47.42
2023-05-14T12:27:15.334Z,48.02
2023-05-14T12:28:15.651Z,45.92
2023-05-14T12:29:15.321Z,48.02
2023-05-14T12:31:15.410Z,46.62
2023-05-14T12:32:15.281Z,43.71
2023-05-14T12:33:15.794Z,44.92
2023-05-14T12:34:15.263Z,46.00
2023-05-14T12:35:15.245Z,45.79
2023-05-14T12:37:15.539Z,45.54
2023-05-14T12:38:15.965Z,45.54
2023-05-14T12:39:15.203Z,49.52
2023-05-14T12:40:15.205Z,48.90
2023-05-14T12:41:15.186Z,42.77
2023-05-14T12:42:15.922Z,43.57
2023-05-14T12:43:15.152Z,46.95
2023-05-14T12:44:15.157Z,49.12
2023-05-14T12:45:15.127Z,46.62
2023-05-14T12:46:15.132Z,42.55
2023-05-14T12:47:15.529Z,44.25
2023-05-14T12:48:15.117Z,44.71
2023-05-14T12:49:15.094Z,43.19
2023-05-14T12:50:15.103Z,43.15
2023-05-14T12:51:15.470Z,43.03
2023-05-14T12:53:15.045Z,44.20
2023-05-14T12:54:15.043Z,42.63
2023-05-14T12:55:15.026Z,41.61